sensor_id;sensor_type;location;lat;lon;timestamp;temperature;humidity
18868;DHT22;9563;49.240;9.088;2024-03-29T05:02:37;9.60;99.90
18868;DHT22;9563;49.240;9.088;2024-03-29T05:05:04;9.60;99.90
18868;DHT22;9563;49.240;9.088;2024-03-29T05:07:31;9.60;99.90
18868;DHT22;9563;49.240;9.088;2024-03-29T05:09:58;9.60;99.90
18868;DHT22;9563;49.240;9.088;2024-03-29T05:12:25;9.60;99.90
18868;DHT22;9563;49.240;9.088;2024-03-29T05:14:52;9.50;99.90
18868;DHT22;9563;49.240;9.088;2024-03-29T05:17:19;9.50;99.90
18868;DHT22;9563;49.240;9.088;2024-03-29T05:19:52;9.50;99.90
18868;DHT22;9563;49.240;9.088;2024-03-29T05:22:19;9.40;99.90
18868;DHT22;9563;49.240;9.088;2024-03-29T05:24:46;9.50;99.90
18868;DHT22;9563;49.240;9.088;2024-03-29T05:27:13;9.40;99.90
18868;DHT22;9563;49.240;9.088;2024-03-29T05:29:40;9.40;99.90
18868;DHT22;9563;49.240;9.088;2024-03-29T05:32:07;9.40;99.90
18868;DHT22;9563;49.240;9.088;2024-03-29T05:34:34;9.40;99.90
18868;DHT22;9563;49.240;9.088;2024-03-29T05:37:02;9.30;99.90
18868;DHT22;9563;49.240;9.088;2024-03-29T05:39:30;9.30;99.90
18868;DHT22;9563;49.240;9.088;2024-03-29T05:41:57;9.40;99.90
18868;DHT22;9563;49.240;9.088;2024-03-29T05:44:24;9.40;99.90
18868;DHT22;9563;49.240;9.088;2024-03-29T05:46:51;9.40;99.90
18868;DHT22;9563;49.240;9.088;2024-03-29T05:49:18;9.50;99.90
18868;DHT22;9563;49.240;9.088;2024-03-29T05:51:45;9.50;99.90
18868;DHT22;9563;49.240;9.088;2024-03-29T05:54:13;9.60;99.90
18868;DHT22;9563;49.240;9.088;2024-03-29T05:56:40;9.60;99.90
18868;DHT22;9563;49.240;9.088;2024-03-29T05:59:07;9.60;99.90
18868;DHT22;9563;49.240;9.088;2024-03-29T06:01:34;9.50;99.90
18868;DHT22;9563;49.240;9.088;2024-03-29T06:04:02;9.50;99.90
18868;DHT22;9563;49.240;9.088;2024-03-29T06:06:34;9.50;99.90
18868;DHT22;9563;49.240;9.088;2024-03-29T06:09:01;9.50;99.90
18868;DHT22;9563;49.240;9.088;2024-03-29T06:11:29;9.50;99.90
18868;DHT22;9563;49.240;9.088;2024-03-29T06:13:56;9.50;99.90
18868;DHT22;9563;49.240;9.088;2024-03-29T06:16:40;9.50;99.90
18868;DHT22;9563;49.240;9.088;2024-03-29T06:19:24;9.50;99.90
18868;DHT22;9563;49.240;9.088;2024-03-29T06:21:53;9.50;99.90
18868;DHT22;9563;49.240;9.088;2024-03-29T06:24:19;9.60;99.90
18868;DHT22;9563;49.240;9.088;2024-03-29T06:26:48;9.50;99.90
18868;DHT22;9563;49.240;9.088;2024-03-29T06:29:14;9.50;99.90
18868;DHT22;9563;49.240;9.088;2024-03-29T06:31:41;9.40;99.90
18868;DHT22;9563;49.240;9.088;2024-03-29T06:34:08;9.40;99.90
18868;DHT22;9563;49.240;9.088;2024-03-29T06:36:35;9.50;99.90
18868;DHT22;9563;49.240;9.088;2024-03-29T06:39:03;9.50;99.90
18868;DHT22;9563;49.240;9.088;2024-03-29T06:41:30;9.50;99.90
18868;DHT22;9563;49.240;9.088;2024-03-29T06:43:58;9.60;99.90
18868;DHT22;9563;49.240;9.088;2024-03-29T06:46:25;9.70;99.90
18868;DHT22;9563;49.240;9.088;2024-03-29T06:48:52;9.80;99.90
18868;DHT22;9563;49.240;9.088;2024-03-29T06:51:19;9.90;99.90
18868;DHT22;9563;49.240;9.088;2024-03-29T06:53:46;10.00;99.90
18868;DHT22;9563;49.240;9.088;2024-03-29T06:56:12;10.10;99.90
18868;DHT22;9563;49.240;9.088;2024-03-29T06:58:41;10.20;99.90
18868;DHT22;9563;49.240;9.088;2024-03-29T07:01:09;10.60;99.90
18868;DHT22;9563;49.240;9.088;2024-03-29T07:03:36;10.70;99.90
18868;DHT22;9563;49.240;9.088;2024-03-29T07:06:03;11.10;99.90
18868;DHT22;9563;49.240;9.088;2024-03-29T07:08:30;11.20;99.90
18868;DHT22;9563;49.240;9.088;2024-03-29T07:10:58;11.20;99.90
18868;DHT22;9563;49.240;9.088;2024-03-29T07:13:25;11.20;99.90
18868;DHT22;9563;49.240;9.088;2024-03-29T07:15:52;11.20;99.90
18868;DHT22;9563;49.240;9.088;2024-03-29T07:18:20;11.20;99.90
18868;DHT22;9563;49.240;9.088;2024-03-29T07:20:47;11.10;99.90
18868;DHT22;9563;49.240;9.088;2024-03-29T07:23:14;11.20;99.90
18868;DHT22;9563;49.240;9.088;2024-03-29T07:25:43;11.10;99.90
18868;DHT22;9563;49.240;9.088;2024-03-29T07:28:10;11.10;99.90
18868;DHT22;9563;49.240;9.088;2024-03-29T07:30:40;11.10;99.90
18868;DHT22;9563;49.240;9.088;2024-03-29T07:33:07;11.10;99.90
18868;DHT22;9563;49.240;9.088;2024-03-29T07:35:36;11.10;99.90
18868;DHT22;9563;49.240;9.088;2024-03-29T07:38:07;11.20;99.90
18868;DHT22;9563;49.240;9.088;2024-03-29T07:40:33;11.10;99.90
18868;DHT22;9563;49.240;9.088;2024-03-29T07:43:01;11.20;99.90
18868;DHT22;9563;49.240;9.088;2024-03-29T07:45:28;11.20;99.90
18868;DHT22;9563;49.240;9.088;2024-03-29T07:47:56;11.20;99.90
18868;DHT22;9563;49.240;9.088;2024-03-29T07:50:23;11.10;99.90
18868;DHT22;9563;49.240;9.088;2024-03-29T07:52:53;11.10;99.90
18868;DHT22;9563;49.240;9.088;2024-03-29T07:55:19;11.10;99.90
18868;DHT22;9563;49.240;9.088;2024-03-29T07:57:46;11.10;99.90
18868;DHT22;9563;49.240;9.088;2024-03-29T08:00:14;11.00;99.90
18868;DHT22;9563;49.240;9.088;2024-03-29T08:02:40;11.00;99.90
18868;DHT22;9563;49.240;9.088;2024-03-29T08:05:07;11.00;99.90
18868;DHT22;9563;49.240;9.088;2024-03-29T08:07:35;11.00;99.90
18868;DHT22;9563;49.240;9.088;2024-03-29T08:10:03;10.90;99.90
18868;DHT22;9563;49.240;9.088;2024-03-29T08:12:33;10.80;99.90
18868;DHT22;9563;49.240;9.088;2024-03-29T08:15:01;10.70;99.90
18868;DHT22;9563;49.240;9.088;2024-03-29T08:17:28;10.60;99.90
18868;DHT22;9563;49.240;9.088;2024-03-29T08:19:55;10.60;99.90
18868;DHT22;9563;49.240;9.088;2024-03-29T08:22:22;10.50;99.90
18868;DHT22;9563;49.240;9.088;2024-03-29T08:24:49;10.60;99.90
18868;DHT22;9563;49.240;9.088;2024-03-29T08:27:17;10.50;99.90
18868;DHT22;9563;49.240;9.088;2024-03-29T08:29:44;10.40;99.90
18868;DHT22;9563;49.240;9.088;2024-03-29T08:32:11;10.30;99.90
18868;DHT22;9563;49.240;9.088;2024-03-29T08:34:38;10.30;99.90
18868;DHT22;9563;49.240;9.088;2024-03-29T08:37:08;10.20;99.90
18868;DHT22;9563;49.240;9.088;2024-03-29T08:39:39;10.10;99.90
18868;DHT22;9563;49.240;9.088;2024-03-29T08:42:06;10.00;99.90
18868;DHT22;9563;49.240;9.088;2024-03-29T08:44:38;10.00;99.90
18868;DHT22;9563;49.240;9.088;2024-03-29T08:47:06;9.90;99.90
18868;DHT22;9563;49.240;9.088;2024-03-29T08:49:33;9.80;99.90
18868;DHT22;9563;49.240;9.088;2024-03-29T08:51:59;9.80;99.90
18868;DHT22;9563;49.240;9.088;2024-03-29T08:54:30;9.70;99.90
18868;DHT22;9563;49.240;9.088;2024-03-29T08:56:57;9.70;99.90
18868;DHT22;9563;49.240;9.088;2024-03-29T08:59:24;9.60;99.90
18868;DHT22;9563;49.240;9.088;2024-03-29T09:01:53;9.50;99.90
18868;DHT22;9563;49.240;9.088;2024-03-29T09:04:20;9.50;99.90
18868;DHT22;9563;49.240;9.088;2024-03-29T09:06:46;9.40;99.90
18868;DHT22;9563;49.240;9.088;2024-03-29T09:09:13;9.30;99.90
18868;DHT22;9563;49.240;9.088;2024-03-29T09:11:40;9.30;99.90
18868;DHT22;9563;49.240;9.088;2024-03-29T09:14:07;9.20;99.90
18868;DHT22;9563;49.240;9.088;2024-03-29T09:16:35;9.20;99.90
18868;DHT22;9563;49.240;9.088;2024-03-29T09:19:03;9.20;99.90
18868;DHT22;9563;49.240;9.088;2024-03-29T09:21:30;9.20;99.90
18868;DHT22;9563;49.240;9.088;2024-03-29T09:23:57;9.10;99.90
18868;DHT22;9563;49.240;9.088;2024-03-29T09:26:25;9.20;99.90
18868;DHT22;9563;49.240;9.088;2024-03-29T09:28:52;9.20;99.90
18868;DHT22;9563;49.240;9.088;2024-03-29T09:31:19;9.20;99.90
18868;DHT22;9563;49.240;9.088;2024-03-29T09:33:45;9.30;99.90
18868;DHT22;9563;49.240;9.088;2024-03-29T09:36:20;9.30;99.90
18868;DHT22;9563;49.240;9.088;2024-03-29T09:38:48;9.40;99.90
18868;DHT22;9563;49.240;9.088;2024-03-29T09:41:16;9.50;99.90
18868;DHT22;9563;49.240;9.088;2024-03-29T09:43:45;9.60;99.90
18868;DHT22;9563;49.240;9.088;2024-03-29T09:46:13;9.60;99.90
18868;DHT22;9563;49.240;9.088;2024-03-29T09:48:40;9.70;99.90
18868;DHT22;9563;49.240;9.088;2024-03-29T09:51:09;9.70;99.90
18868;DHT22;9563;49.240;9.088;2024-03-29T09:53:42;9.70;99.90
18868;DHT22;9563;49.240;9.088;2024-03-29T09:56:10;9.70;99.90
18868;DHT22;9563;49.240;9.088;2024-03-29T09:58:37;9.80;99.90
18868;DHT22;9563;49.240;9.088;2024-03-29T10:01:06;9.80;99.90
18868;DHT22;9563;49.240;9.088;2024-03-29T10:03:40;9.90;99.90
18868;DHT22;9563;49.240;9.088;2024-03-29T10:06:07;10.00;99.90
18868;DHT22;9563;49.240;9.088;2024-03-29T10:08:35;10.10;99.90
18868;DHT22;9563;49.240;9.088;2024-03-29T10:11:04;10.30;99.90
18868;DHT22;9563;49.240;9.088;2024-03-29T10:13:31;10.40;99.90
18868;DHT22;9563;49.240;9.088;2024-03-29T10:15:59;10.50;99.90
18868;DHT22;9563;49.240;9.088;2024-03-29T10:18:28;10.50;99.90
18868;DHT22;9563;49.240;9.088;2024-03-29T10:21:00;10.60;99.90
18868;DHT22;9563;49.240;9.088;2024-03-29T10:23:27;10.70;99.90
18868;DHT22;9563;49.240;9.088;2024-03-29T10:25:54;10.80;99.90
18868;DHT22;9563;49.240;9.088;2024-03-29T10:28:23;10.90;99.90
18868;DHT22;9563;49.240;9.088;2024-03-29T10:30:49;11.00;99.90
18868;DHT22;9563;49.240;9.088;2024-03-29T10:33:16;11.00;99.90
18868;DHT22;9563;49.240;9.088;2024-03-29T10:35:44;11.00;99.90
18868;DHT22;9563;49.240;9.088;2024-03-29T10:38:11;11.10;99.90
18868;DHT22;9563;49.240;9.088;2024-03-29T10:40:39;11.20;99.90
18868;DHT22;9563;49.240;9.088;2024-03-29T10:43:07;11.20;99.90
18868;DHT22;9563;49.240;9.088;2024-03-29T10:45:39;11.20;99.90
18868;DHT22;9563;49.240;9.088;2024-03-29T10:48:09;11.20;99.90
18868;DHT22;9563;49.240;9.088;2024-03-29T10:50:36;11.30;99.90
18868;DHT22;9563;49.240;9.088;2024-03-29T10:53:05;11.30;99.90
18868;DHT22;9563;49.240;9.088;2024-03-29T10:55:33;11.30;99.90
18868;DHT22;9563;49.240;9.088;2024-03-29T10:58:01;11.30;99.90
18868;DHT22;9563;49.240;9.088;2024-03-29T11:00:29;11.30;99.90
18868;DHT22;9563;49.240;9.088;2024-03-29T11:03:09;11.30;99.90
18868;DHT22;9563;49.240;9.088;2024-03-29T11:05:44;11.40;99.90
18868;DHT22;9563;49.240;9.088;2024-03-29T11:08:14;11.70;99.90
18868;DHT22;9563;49.240;9.088;2024-03-29T11:10:45;12.30;99.90
18868;DHT22;9563;49.240;9.088;2024-03-29T11:13:22;12.80;99.90
18868;DHT22;9563;49.240;9.088;2024-03-29T11:15:52;13.40;99.90
18868;DHT22;9563;49.240;9.088;2024-03-29T11:18:21;14.10;99.90
18868;DHT22;9563;49.240;9.088;2024-03-29T11:20:50;14.80;99.90
18868;DHT22;9563;49.240;9.088;2024-03-29T11:23:18;15.30;99.90
18868;DHT22;9563;49.240;9.088;2024-03-29T11:25:48;15.40;99.90
18868;DHT22;9563;49.240;9.088;2024-03-29T11:28:22;15.40;99.90
18868;DHT22;9563;49.240;9.088;2024-03-29T11:30:50;15.20;99.90
18868;DHT22;9563;49.240;9.088;2024-03-29T11:33:29;14.90;99.90
18868;DHT22;9563;49.240;9.088;2024-03-29T11:35:56;14.60;99.90
18868;DHT22;9563;49.240;9.088;2024-03-29T11:38:33;14.40;99.90
18868;DHT22;9563;49.240;9.088;2024-03-29T11:41:05;14.30;99.90
18868;DHT22;9563;49.240;9.088;2024-03-29T11:43:34;14.20;99.90
18868;DHT22;9563;49.240;9.088;2024-03-29T11:46:02;14.10;99.90
18868;DHT22;9563;49.240;9.088;2024-03-29T11:48:31;14.00;99.90
18868;DHT22;9563;49.240;9.088;2024-03-29T11:50:58;13.90;99.90
18868;DHT22;9563;49.240;9.088;2024-03-29T11:53:25;13.80;99.90
18868;DHT22;9563;49.240;9.088;2024-03-29T11:55:53;13.70;99.90
18868;DHT22;9563;49.240;9.088;2024-03-29T11:58:21;13.60;99.90
18868;DHT22;9563;49.240;9.088;2024-03-29T12:00:48;13.40;99.90
18868;DHT22;9563;49.240;9.088;2024-03-29T12:03:16;13.30;99.90
18868;DHT22;9563;49.240;9.088;2024-03-29T12:05:47;13.20;99.90
18868;DHT22;9563;49.240;9.088;2024-03-29T12:08:14;13.20;99.90
18868;DHT22;9563;49.240;9.088;2024-03-29T12:10:41;13.10;99.90
18868;DHT22;9563;49.240;9.088;2024-03-29T12:13:08;13.00;99.90
18868;DHT22;9563;49.240;9.088;2024-03-29T12:15:35;13.00;99.90
18868;DHT22;9563;49.240;9.088;2024-03-29T12:18:03;13.00;99.90
18868;DHT22;9563;49.240;9.088;2024-03-29T12:20:31;12.90;99.90
18868;DHT22;9563;49.240;9.088;2024-03-29T12:23:00;12.90;99.90
18868;DHT22;9563;49.240;9.088;2024-03-29T12:25:28;12.90;99.90
18868;DHT22;9563;49.240;9.088;2024-03-29T12:27:55;12.90;99.90
18868;DHT22;9563;49.240;9.088;2024-03-29T12:30:22;13.00;99.90
18868;DHT22;9563;49.240;9.088;2024-03-29T12:33:00;13.00;99.90
18868;DHT22;9563;49.240;9.088;2024-03-29T12:35:28;13.00;99.90
18868;DHT22;9563;49.240;9.088;2024-03-29T12:37:55;13.00;99.90
18868;DHT22;9563;49.240;9.088;2024-03-29T12:40:24;13.00;99.90
18868;DHT22;9563;49.240;9.088;2024-03-29T12:42:52;12.90;99.90
18868;DHT22;9563;49.240;9.088;2024-03-29T12:45:19;12.80;99.90
18868;DHT22;9563;49.240;9.088;2024-03-29T12:47:47;12.80;99.90
18868;DHT22;9563;49.240;9.088;2024-03-29T12:50:19;12.80;99.90
18868;DHT22;9563;49.240;9.088;2024-03-29T12:52:53;12.70;99.90
18868;DHT22;9563;49.240;9.088;2024-03-29T12:55:21;12.70;99.90
18868;DHT22;9563;49.240;9.088;2024-03-29T12:57:50;12.70;99.90
18868;DHT22;9563;49.240;9.088;2024-03-29T13:00:19;12.70;99.90
18868;DHT22;9563;49.240;9.088;2024-03-29T13:02:45;12.70;99.90
18868;DHT22;9563;49.240;9.088;2024-03-29T13:05:12;12.80;99.90
18868;DHT22;9563;49.240;9.088;2024-03-29T13:07:39;12.80;99.90
18868;DHT22;9563;49.240;9.088;2024-03-29T13:10:08;12.80;99.90
18868;DHT22;9563;49.240;9.088;2024-03-29T13:12:39;12.80;99.90
18868;DHT22;9563;49.240;9.088;2024-03-29T13:15:18;12.80;99.90
18868;DHT22;9563;49.240;9.088;2024-03-29T13:17:46;12.70;99.90
18868;DHT22;9563;49.240;9.088;2024-03-29T13:20:14;12.70;99.90
18868;DHT22;9563;49.240;9.088;2024-03-29T13:22:42;12.70;99.90
18868;DHT22;9563;49.240;9.088;2024-03-29T13:25:11;12.70;99.90
18868;DHT22;9563;49.240;9.088;2024-03-29T13:27:38;12.70;99.90
18868;DHT22;9563;49.240;9.088;2024-03-29T13:30:07;12.70;99.90
18868;DHT22;9563;49.240;9.088;2024-03-29T13:32:36;12.80;99.90
18868;DHT22;9563;49.240;9.088;2024-03-29T13:35:03;12.90;99.90
18868;DHT22;9563;49.240;9.088;2024-03-29T13:37:31;12.90;99.90
18868;DHT22;9563;49.240;9.088;2024-03-29T13:39:58;13.00;99.90
18868;DHT22;9563;49.240;9.088;2024-03-29T13:42:25;13.00;99.90
18868;DHT22;9563;49.240;9.088;2024-03-29T13:44:52;13.00;99.90
18868;DHT22;9563;49.240;9.088;2024-03-29T13:47:20;13.00;99.90
18868;DHT22;9563;49.240;9.088;2024-03-29T13:49:48;13.10;99.90
18868;DHT22;9563;49.240;9.088;2024-03-29T13:52:18;13.10;99.90
18868;DHT22;9563;49.240;9.088;2024-03-29T13:54:45;13.00;99.90
18868;DHT22;9563;49.240;9.088;2024-03-29T13:57:12;13.10;99.90
18868;DHT22;9563;49.240;9.088;2024-03-29T13:59:39;13.10;99.90
18868;DHT22;9563;49.240;9.088;2024-03-29T14:02:08;13.20;99.90
18868;DHT22;9563;49.240;9.088;2024-03-29T14:04:35;13.30;99.90
18868;DHT22;9563;49.240;9.088;2024-03-29T14:07:04;13.50;99.90
18868;DHT22;9563;49.240;9.088;2024-03-29T14:09:33;13.60;99.90
18868;DHT22;9563;49.240;9.088;2024-03-29T14:12:00;13.70;99.90
18868;DHT22;9563;49.240;9.088;2024-03-29T14:14:27;13.90;99.90
18868;DHT22;9563;49.240;9.088;2024-03-29T14:16:54;14.00;99.90
18868;DHT22;9563;49.240;9.088;2024-03-29T14:19:21;14.00;99.90
18868;DHT22;9563;49.240;9.088;2024-03-29T14:21:48;14.00;99.90
18868;DHT22;9563;49.240;9.088;2024-03-29T14:24:17;14.00;99.90
18868;DHT22;9563;49.240;9.088;2024-03-29T14:26:49;13.90;99.90
18868;DHT22;9563;49.240;9.088;2024-03-29T14:29:15;13.90;99.90
18868;DHT22;9563;49.240;9.088;2024-03-29T14:31:43;13.90;99.90
18868;DHT22;9563;49.240;9.088;2024-03-29T14:34:10;13.90;99.90
18868;DHT22;9563;49.240;9.088;2024-03-29T14:36:37;13.80;99.90
18868;DHT22;9563;49.240;9.088;2024-03-29T14:39:04;13.90;99.90
18868;DHT22;9563;49.240;9.088;2024-03-29T14:41:33;13.90;99.90
18868;DHT22;9563;49.240;9.088;2024-03-29T14:44:02;13.90;99.90
18868;DHT22;9563;49.240;9.088;2024-03-29T14:46:29;14.00;99.90
18868;DHT22;9563;49.240;9.088;2024-03-29T14:48:56;14.00;99.90
18868;DHT22;9563;49.240;9.088;2024-03-29T14:51:23;13.90;99.90
18868;DHT22;9563;49.240;9.088;2024-03-29T14:53:50;13.90;99.90
18868;DHT22;9563;49.240;9.088;2024-03-29T14:56:16;14.00;99.90
18868;DHT22;9563;49.240;9.088;2024-03-29T14:58:45;14.00;99.90
18868;DHT22;9563;49.240;9.088;2024-03-29T15:01:12;14.00;99.90
18868;DHT22;9563;49.240;9.088;2024-03-29T15:03:40;14.10;99.90
18868;DHT22;9563;49.240;9.088;2024-03-29T15:06:07;14.20;99.90
18868;DHT22;9563;49.240;9.088;2024-03-29T15:08:34;14.30;99.90
18868;DHT22;9563;49.240;9.088;2024-03-29T15:11:01;14.30;99.90
18868;DHT22;9563;49.240;9.088;2024-03-29T15:13:28;14.30;99.90
18868;DHT22;9563;49.240;9.088;2024-03-29T15:15:57;14.30;99.90
18868;DHT22;9563;49.240;9.088;2024-03-29T15:18:24;14.20;99.90
18868;DHT22;9563;49.240;9.088;2024-03-29T15:20:55;14.20;99.90
18868;DHT22;9563;49.240;9.088;2024-03-29T15:23:22;14.20;99.90
18868;DHT22;9563;49.240;9.088;2024-03-29T15:25:51;14.10;99.90
18868;DHT22;9563;49.240;9.088;2024-03-29T15:28:18;14.10;99.90
18868;DHT22;9563;49.240;9.088;2024-03-29T15:31:09;14.30;99.90
18868;DHT22;9563;49.240;9.088;2024-03-29T15:33:37;14.30;99.90
18868;DHT22;9563;49.240;9.088;2024-03-29T15:36:04;14.50;99.90
18868;DHT22;9563;49.240;9.088;2024-03-29T15:38:32;14.50;99.90
18868;DHT22;9563;49.240;9.088;2024-03-29T15:40:59;14.50;99.90
18868;DHT22;9563;49.240;9.088;2024-03-29T15:43:26;14.50;99.90
18868;DHT22;9563;49.240;9.088;2024-03-29T15:45:53;14.50;99.90
18868;DHT22;9563;49.240;9.088;2024-03-29T15:48:22;14.50;99.90
18868;DHT22;9563;49.240;9.088;2024-03-29T15:50:49;14.40;99.90
18868;DHT22;9563;49.240;9.088;2024-03-29T15:53:16;14.40;99.90
18868;DHT22;9563;49.240;9.088;2024-03-29T15:55:43;14.30;99.90
18868;DHT22;9563;49.240;9.088;2024-03-29T15:58:11;14.30;99.90
18868;DHT22;9563;49.240;9.088;2024-03-29T16:00:38;14.30;99.90
18868;DHT22;9563;49.240;9.088;2024-03-29T16:03:08;14.30;99.90
18868;DHT22;9563;49.240;9.088;2024-03-29T16:05:39;14.30;99.90
18868;DHT22;9563;49.240;9.088;2024-03-29T16:08:06;14.30;99.90
18868;DHT22;9563;49.240;9.088;2024-03-29T16:10:33;14.20;99.90
18868;DHT22;9563;49.240;9.088;2024-03-29T16:13:00;14.20;99.90
18868;DHT22;9563;49.240;9.088;2024-03-29T16:15:27;14.20;99.90
18868;DHT22;9563;49.240;9.088;2024-03-29T16:17:54;14.10;99.90
18868;DHT22;9563;49.240;9.088;2024-03-29T16:20:19;14.10;99.90
18868;DHT22;9563;49.240;9.088;2024-03-29T16:22:48;14.10;99.90
18868;DHT22;9563;49.240;9.088;2024-03-29T16:25:15;14.10;99.90
18868;DHT22;9563;49.240;9.088;2024-03-29T16:27:41;14.00;99.90
18868;DHT22;9563;49.240;9.088;2024-03-29T16:30:08;14.00;99.90
18868;DHT22;9563;49.240;9.088;2024-03-29T16:32:34;13.90;99.90
18868;DHT22;9563;49.240;9.088;2024-03-29T16:35:01;13.80;99.90
18868;DHT22;9563;49.240;9.088;2024-03-29T16:37:27;13.80;99.90
18868;DHT22;9563;49.240;9.088;2024-03-29T16:39:55;13.70;99.90
18868;DHT22;9563;49.240;9.088;2024-03-29T16:42:21;13.70;99.90
18868;DHT22;9563;49.240;9.088;2024-03-29T16:44:48;13.60;99.90
18868;DHT22;9563;49.240;9.088;2024-03-29T16:47:14;13.50;99.90
18868;DHT22;9563;49.240;9.088;2024-03-29T16:49:41;13.40;99.90
18868;DHT22;9563;49.240;9.088;2024-03-29T16:52:06;13.40;99.90
18868;DHT22;9563;49.240;9.088;2024-03-29T16:54:33;13.30;99.90
18868;DHT22;9563;49.240;9.088;2024-03-29T16:57:00;13.30;99.90
18868;DHT22;9563;49.240;9.088;2024-03-29T16:59:28;13.20;99.90
18868;DHT22;9563;49.240;9.088;2024-03-29T17:01:54;13.20;99.90
18868;DHT22;9563;49.240;9.088;2024-03-29T17:04:21;13.20;99.90
18868;DHT22;9563;49.240;9.088;2024-03-29T17:06:46;13.20;99.90
18868;DHT22;9563;49.240;9.088;2024-03-29T17:09:34;13.10;99.90
18868;DHT22;9563;49.240;9.088;2024-03-29T17:12:02;13.10;99.90
18868;DHT22;9563;49.240;9.088;2024-03-29T17:14:29;13.10;99.90
18868;DHT22;9563;49.240;9.088;2024-03-29T17:16:56;13.00;99.90
18868;DHT22;9563;49.240;9.088;2024-03-29T17:19:26;12.90;99.90
18868;DHT22;9563;49.240;9.088;2024-03-29T17:21:52;12.90;99.90
18868;DHT22;9563;49.240;9.088;2024-03-29T17:24:20;12.90;99.90
18868;DHT22;9563;49.240;9.088;2024-03-29T17:26:46;12.90;99.90
18868;DHT22;9563;49.240;9.088;2024-03-29T17:29:15;12.80;99.90
18868;DHT22;9563;49.240;9.088;2024-03-29T17:31:41;12.80;99.90
18868;DHT22;9563;49.240;9.088;2024-03-29T17:34:08;12.70;99.90
18868;DHT22;9563;49.240;9.088;2024-03-29T17:36:35;12.70;99.90
18868;DHT22;9563;49.240;9.088;2024-03-29T17:39:02;12.70;99.90
18868;DHT22;9563;49.240;9.088;2024-03-29T17:41:29;12.70;99.90
18868;DHT22;9563;49.240;9.088;2024-03-29T17:43:56;12.60;99.90
18868;DHT22;9563;49.240;9.088;2024-03-29T17:46:23;12.60;99.90
18868;DHT22;9563;49.240;9.088;2024-03-29T17:48:50;12.50;99.90
18868;DHT22;9563;49.240;9.088;2024-03-29T17:51:16;12.50;99.90
18868;DHT22;9563;49.240;9.088;2024-03-29T17:53:43;12.50;99.90
18868;DHT22;9563;49.240;9.088;2024-03-29T17:56:09;12.50;99.90
18868;DHT22;9563;49.240;9.088;2024-03-29T17:58:36;12.70;99.90
18868;DHT22;9563;49.240;9.088;2024-03-29T18:01:02;12.60;99.90
18868;DHT22;9563;49.240;9.088;2024-03-29T18:03:30;12.70;99.90
18868;DHT22;9563;49.240;9.088;2024-03-29T18:05:56;12.70;99.90
18868;DHT22;9563;49.240;9.088;2024-03-29T18:08:23;12.70;99.90
18868;DHT22;9563;49.240;9.088;2024-03-29T18:10:49;12.70;99.90
18868;DHT22;9563;49.240;9.088;2024-03-29T18:13:15;12.60;99.90
18868;DHT22;9563;49.240;9.088;2024-03-29T18:15:45;12.50;99.90
18868;DHT22;9563;49.240;9.088;2024-03-29T18:18:13;12.40;99.90
18868;DHT22;9563;49.240;9.088;2024-03-29T18:20:43;12.40;99.90
18868;DHT22;9563;49.240;9.088;2024-03-29T18:23:11;12.30;99.90
18868;DHT22;9563;49.240;9.088;2024-03-29T18:25:37;12.20;99.90
18868;DHT22;9563;49.240;9.088;2024-03-29T18:28:04;12.20;99.90
18868;DHT22;9563;49.240;9.088;2024-03-29T18:30:31;12.20;99.90
18868;DHT22;9563;49.240;9.088;2024-03-29T18:32:58;12.10;99.90
18868;DHT22;9563;49.240;9.088;2024-03-29T18:35:24;12.10;99.90
18868;DHT22;9563;49.240;9.088;2024-03-29T18:37:52;12.10;99.90
18868;DHT22;9563;49.240;9.088;2024-03-29T18:40:18;12.10;99.90
18868;DHT22;9563;49.240;9.088;2024-03-29T18:42:46;12.00;99.90
18868;DHT22;9563;49.240;9.088;2024-03-29T18:45:13;12.00;99.90
18868;DHT22;9563;49.240;9.088;2024-03-29T18:47:41;12.00;99.90
18868;DHT22;9563;49.240;9.088;2024-03-29T18:50:08;12.00;99.90
18868;DHT22;9563;49.240;9.088;2024-03-29T18:52:35;11.90;99.90
18868;DHT22;9563;49.240;9.088;2024-03-29T18:55:02;11.90;99.90
18868;DHT22;9563;49.240;9.088;2024-03-29T18:57:29;11.90;99.90
18868;DHT22;9563;49.240;9.088;2024-03-29T18:59:55;11.90;99.90
18868;DHT22;9563;49.240;9.088;2024-03-29T19:02:22;11.90;99.90
18868;DHT22;9563;49.240;9.088;2024-03-29T19:04:48;11.90;99.90
18868;DHT22;9563;49.240;9.088;2024-03-29T19:07:15;11.90;99.90
18868;DHT22;9563;49.240;9.088;2024-03-29T19:09:41;11.90;99.90
18868;DHT22;9563;49.240;9.088;2024-03-29T19:12:09;11.90;99.90
18868;DHT22;9563;49.240;9.088;2024-03-29T19:14:35;11.90;99.90
18868;DHT22;9563;49.240;9.088;2024-03-29T19:17:02;11.90;99.90
18868;DHT22;9563;49.240;9.088;2024-03-29T19:19:28;11.90;99.90
18868;DHT22;9563;49.240;9.088;2024-03-29T19:21:56;11.90;99.90
18868;DHT22;9563;49.240;9.088;2024-03-29T19:24:22;11.90;99.90
18868;DHT22;9563;49.240;9.088;2024-03-29T19:26:51;11.90;99.90
18868;DHT22;9563;49.240;9.088;2024-03-29T19:29:18;11.90;99.90
18868;DHT22;9563;49.240;9.088;2024-03-29T19:31:46;11.80;99.90
18868;DHT22;9563;49.240;9.088;2024-03-29T19:34:12;11.80;99.90
18868;DHT22;9563;49.240;9.088;2024-03-29T19:36:39;11.80;99.90
18868;DHT22;9563;49.240;9.088;2024-03-29T19:39:05;11.80;99.90
18868;DHT22;9563;49.240;9.088;2024-03-29T19:41:34;11.80;99.90
18868;DHT22;9563;49.240;9.088;2024-03-29T19:44:00;11.80;99.90
18868;DHT22;9563;49.240;9.088;2024-03-29T19:46:29;11.80;99.90
18868;DHT22;9563;49.240;9.088;2024-03-29T19:48:55;11.80;99.90
18868;DHT22;9563;49.240;9.088;2024-03-29T19:51:22;11.80;99.90
18868;DHT22;9563;49.240;9.088;2024-03-29T19:53:48;11.80;99.90
18868;DHT22;9563;49.240;9.088;2024-03-29T19:56:15;11.80;99.90
18868;DHT22;9563;49.240;9.088;2024-03-29T19:58:41;11.80;99.90
18868;DHT22;9563;49.240;9.088;2024-03-29T20:01:08;11.80;99.90
18868;DHT22;9563;49.240;9.088;2024-03-29T20:03:35;11.70;99.90
18868;DHT22;9563;49.240;9.088;2024-03-29T20:06:02;11.70;99.90
18868;DHT22;9563;49.240;9.088;2024-03-29T20:08:28;11.80;99.90
18868;DHT22;9563;49.240;9.088;2024-03-29T20:10:57;11.70;99.90
18868;DHT22;9563;49.240;9.088;2024-03-29T20:13:22;11.70;99.90
18868;DHT22;9563;49.240;9.088;2024-03-29T20:15:49;11.70;99.90
18868;DHT22;9563;49.240;9.088;2024-03-29T20:18:15;11.70;99.90
18868;DHT22;9563;49.240;9.088;2024-03-29T20:20:51;11.70;99.90
18868;DHT22;9563;49.240;9.088;2024-03-29T20:23:17;11.70;99.90
18868;DHT22;9563;49.240;9.088;2024-03-29T20:25:44;11.70;99.90
18868;DHT22;9563;49.240;9.088;2024-03-29T20:28:11;11.70;99.90
18868;DHT22;9563;49.240;9.088;2024-03-29T20:30:38;11.70;99.90
18868;DHT22;9563;49.240;9.088;2024-03-29T20:33:04;11.60;99.90
18868;DHT22;9563;49.240;9.088;2024-03-29T20:35:37;11.60;99.90
18868;DHT22;9563;49.240;9.088;2024-03-29T20:38:05;11.60;99.90
18868;DHT22;9563;49.240;9.088;2024-03-29T20:40:32;11.60;99.90
18868;DHT22;9563;49.240;9.088;2024-03-29T20:42:58;11.60;99.90
18868;DHT22;9563;49.240;9.088;2024-03-29T20:45:25;11.60;99.90
18868;DHT22;9563;49.240;9.088;2024-03-29T20:47:51;11.60;99.90
18868;DHT22;9563;49.240;9.088;2024-03-29T20:50:18;11.50;99.90
18868;DHT22;9563;49.240;9.088;2024-03-29T20:52:44;11.60;99.90
18868;DHT22;9563;49.240;9.088;2024-03-29T20:55:12;11.50;99.90